Elk Mound, Wisconsin
Current Conditions -  °F | °C
As of 4:15 AM on Friday 19 Dec 2014 (Local Time) from KLUM Reporting Station
Overcast Overcast  
Wind Chill: 16°   Ceiling: 1200
Heat Index: 24°   Visibility: 10mi
Dew Point: 20°   Wind: 7mph
Humidity: 84%   Direction: 200°SSW
Pressure: 30.27"   Gusts: NA
Location:  44.87°N, 91.69°W
Report Text: KLUM 191015Z AUTO 20006KT 10SM OVC012 M04/M07 A3027 RMK AO2 T10451068
Loading
Personal Weather Stations






























Interactive Weather Map New forecast layout! Learn more

10-Day Weather Forecast

Advertisements
Track Severe Weather on mobile